Airfield :
LOGIN :

Register | Disclaimer

   EN    FR    IT 

 










Legend :    VFR   Marginal VFR   IFR   Intensive IFR   Very Intensive IFR
Visi :
Ceiling :
>= 8 km
>= 3000ft
5 to 8 km
1000 to 3000 ft
1500m to 5 km
500 to 1000 ft
800 to 1500m
200 to 500 ft
< 800m
< 200 ft
Symbols :   Thunderstorms  Fog  Heavy snow  Heavy precipitations  Wind > 20 kt
SIGMETs :     Misc.  Thunderstorms  Icing  Turbulence  Mountain Waves  Volcanic Ashes






- Airport Elevation : 79 ft
- IATA code : SPU


LDSP - Split

CURRENT METAR :
  • 281530Z 33004KT 290V020 9999 FEW040 25/03 Q1018 NOSIG

EXPIRED METARs :
  • 281500Z 34007KT 280V010 9999 FEW040 23/02 Q1018 NOSIG
  • 281430Z 33008KT 290V010 9999 FEW040 24/02 Q1018 NOSIG
  • 281400Z 36011KT 340V040 9999 FEW040 23/02 Q1019 NOSIG
  • 281330Z VRB08KT 9999 FEW040 25/03 Q1019 NOSIG
  • 281300Z 02010KT 350V060 9999 FEW040 24/04 Q1019 NOSIG

TAF TAF LDSP
Valid from the 28 at 12:00 until the 29 at 12:00 UTC


281125Z 2812/2912 05008KT 9999 FEW040 TX24/2812Z TN15/2903Z
TEMPO 2812/2820 34010KT
PROB30
TEMPO 2812/2816 05015G25KT FEW070TCU
BECMG 2820/2822 05005KT
BECMG 2910/2912 23010KT



MET'MAP, your aeronautical weather chart ! - Copyright ORBIFLY December 2007 - Disclaimer

ORBIFLY MET'MAP TEAM :

Programming & Development : Alexandra Zaïnal
Concept & original design : Baudouin d'Aumeries
Assistance for programming : Marc-Olivier Méhu
Technical & hardware support : Manuel Goepfert

Contact : metmap@orbifly.com




SOURCES & CREDITS :

   NOAA